Ship Status Report: callsign OS8154

sailwx.info

Track history (hours):
 
Tides and Currents Weather Stations Pressure Air Temp Water Temp Dewpoint Dewpoint Depression Visibility Wind Speed Wind Dir Waves Ship Positions

Callsign OS8154 (name unknown)

Last reported at 2015-Aug-04 05:00 UTC. Time now 2015-Aug-04 11:45 UTC.
Position N 66°54' W 053°36'.

Barometer 1021.9 mb
Air temperature 7.0 ° C

Date/timePositionNaut miles runAvg speedWind from/ knotsBaromVisibWave heightAir tempDewpointWater temp
2015-Aug-04 05:00N 66°54' W 053°36'0 0.0 1021.9 7.0
2015-Aug-04 02:00N 66°54' W 053°36'0 0.0 1021.9 7.8
2015-Aug-03 21:00N 66°54' W 053°36'2 0.8 1022.4 9.0
2015-Aug-03 18:00N 66°54' W 053°42'0 0.0 1022.4 8.8
2015-Aug-03 17:00N 66°54' W 053°42'0 0.0 1022.6 9.0
2015-Aug-03 16:00N 66°54' W 053°42'0 0.0 1022.9 9.5
2015-Aug-03 14:00N 66°54' W 053°42'0 0.0 1023.0 9.3
2015-Aug-03 13:00N 66°54' W 053°42'0 0.0 1023.1 9.8
2015-Aug-03 09:00N 66°54' W 053°42'0 0.0 1023.6 7.5
2015-Aug-03 06:00N 66°54' W 053°42'0 0.0 1023.5 6.5
2015-Aug-03 02:00N 66°54' W 053°42'0 0.0 1023.0 8.3
2015-Aug-03 01:00N 66°54' W 053°42'0 0.0 1022.9 9.0
2015-Aug-03 00:00N 66°54' W 053°42'0 0.0 1022.7 9.3
2015-Aug-02 23:00N 66°54' W 053°42'0 0.0 1022.6 11.3
2015-Aug-02 22:00N 66°54' W 053°42'0 0.0 1022.7 11.8
2015-Aug-02 21:00N 66°54' W 053°42'0 0.0 1022.8 11.3
2015-Aug-02 20:00N 66°54' W 053°42'0 0.0 1023.2 11.8
2015-Aug-02 19:00N 66°54' W 053°42'0 0.0 1023.3 10.0
2015-Aug-02 17:00N 66°54' W 053°42'0 0.0 1023.4 9.3
2015-Aug-02 16:00N 66°54' W 053°42'0 0.0 1023.6 9.0
2015-Aug-02 15:00N 66°54' W 053°42'0 0.0 1023.8 10.3
2015-Aug-02 14:00N 66°54' W 053°42'0 0.0 1023.9 10.0
2015-Aug-02 13:00N 66°54' W 053°42'0 0.0 1023.7 10.5
2015-Aug-02 11:00N 66°54' W 053°42'0 0.0 1023.3 9.5
2015-Aug-02 10:00N 66°54' W 053°42'0 0.0 1023.3 9.0
2015-Aug-02 06:00N 66°54' W 053°42'0 0.0 1022.6 8.8
2015-Aug-02 05:00N 66°54' W 053°42'0 0.0 1022.3 9.0
2015-Aug-02 04:00N 66°54' W 053°42'0 0.0 1022.0 8.8
2015-Aug-02 03:00N 66°54' W 053°42'0 0.0 1021.5 9.0
2015-Aug-02 01:00N 66°54' W 053°42'0 0.0 1020.4 8.8
2015-Aug-01 22:00N 66°54' W 053°42'0 0.0 1018.4 14.8
2015-Aug-01 21:00N 66°54' W 053°42'0 0.0 1018.3 13.8
2015-Aug-01 20:00N 66°54' W 053°42'2 0.5 1018.5 12.5
2015-Aug-01 15:00N 66°54' W 053°36'0 0.0 1019.6 11.3
2015-Aug-01 14:00N 66°54' W 053°36'0 0.0 1019.9 11.8
2015-Aug-01 13:00N 66°54' W 053°36'2 1.2 1020.1 12.0
2015-Aug-01 11:00N 66°54' W 053°42'0 0.0 1020.0 7.8
2015-Aug-01 09:00N 66°54' W 053°42'0 0.0 1020.0 6.0
2015-Aug-01 07:00N 66°54' W 053°42'0 0.0 1020.0 5.5
2015-Aug-01 02:00N 66°54' W 053°42'14 3.5 1020.5 5.3
2015-Jul-31 22:00N 67°06' W 054°00'24 8.0 1020.8 2.0
2015-Jul-31 19:00N 67°30' W 053°54'6 6.4 1020.8 2.3
2015-Jul-31 18:00N 67°36' W 053°48'6 6.0 1020.8 3.0
2015-Jul-31 17:00N 67°42' W 053°48'0 0.0 1021.0 5.5
2015-Jul-31 16:00N 67°42' W 053°48'25 8.3 1021.1 4.5
2015-Jul-31 13:00N 68°06' W 053°30'0 0.0 1020.8 3.3
2015-Jul-31 12:00N 68°06' W 053°30'0 0.0 1020.6 4.8
2015-Jul-31 09:00N 68°06' W 053°30'0 0.0 1020.7 4.5
2015-Jul-31 08:00N 68°06' W 053°30'0 0.0 1020.6 3.8
2015-Jul-31 07:00N 68°06' W 053°30'0 0.0 1020.6 3.3
2015-Jul-31 05:00N 68°06' W 053°30'0 0.0 1021.1 2.0
2015-Jul-31 03:00N 68°06' W 053°30'0 0.0 1021.0 2.3
2015-Jul-30 23:00N 68°06' W 053°30'19 6.2 1021.5 2.3
2015-Jul-30 20:00N 68°24' W 053°18'1212.2 1021.6 2.8
2015-Jul-30 19:00N 68°36' W 053°12'9 4.4 1021.5 3.8
2015-Jul-30 17:00N 68°42' W 052°54'0 0.0 1021.6 7.5
2015-Jul-30 14:00N 68°42' W 052°54'0 0.0 1021.5 7.3
2015-Jul-30 12:00N 68°42' W 052°54'0 0.0 1021.4 6.0
2015-Jul-30 11:00N 68°42' W 052°54'0 0.0 1021.2 5.3
2015-Jul-30 08:00N 68°42' W 052°54'0 0.0 1021.5 4.5
2015-Jul-30 07:00N 68°42' W 052°54'0 0.0 1021.3 4.3
2015-Jul-30 05:00N 68°42' W 052°54'0 0.0 1021.2 4.8
2015-Jul-30 02:00N 68°42' W 052°54'0 0.0 1021.0 3.5
2015-Jul-30 01:00N 68°42' W 052°54'6 1.2 1020.8 3.8
2015-Jul-29 20:00N 68°48' W 052°54'7 7.4 1020.2 5.8
2015-Jul-29 19:00N 68°54' W 053°06'14 3.4 1019.9 9.3
2015-Jul-29 15:00N 69°06' W 053°24'6 1.6 1019.7 8.0
2015-Jul-29 11:00N 69°12' W 053°30'0 0.0 1019.2 9.3
2015-Jul-29 09:00N 69°12' W 053°30'0 0.0 1019.1 10.3
2015-Jul-29 03:00N 69°12' W 053°30'0 0.0 1018.4 6.3
2015-Jul-28 21:00N 69°12' W 053°30'0 0.0 1018.0 8.5
2015-Jul-28 18:00N 69°12' W 053°30'0 0.0 1018.0 8.8
2015-Jul-28 16:00N 69°12' W 053°30'0 0.0 1018.2 7.0
2015-Jul-28 15:00N 69°12' W 053°30'0 0.0 1018.3 6.8
2015-Jul-28 13:00N 69°12' W 053°30'0 0.0 1018.2 7.0
2015-Jul-28 11:00N 69°12' W 053°30'0 0.0 1017.8 6.3
2015-Jul-28 09:00N 69°12' W 053°30'0 0.0 1017.4 5.8
2015-Jul-28 00:00N 69°12' W 053°30'0 0.0 1016.0 5.0
2015-Jul-27 21:00N 69°12' W 053°30'0 0.0 1015.4 6.3
2015-Jul-27 20:00N 69°12' W 053°30'6 2.1 1015.3 7.0
2015-Jul-27 17:00N 69°12' W 053°48'18 4.5 1015.3 6.3
2015-Jul-27 13:00N 69°30' W 053°48'0 0.0 1014.2 9.3
2015-Jul-27 12:00N 69°30' W 053°48'0 0.0 1014.1 10.3
2015-Jul-27 11:00N 69°30' W 053°48'0 0.0 1014.0 8.8
2015-Jul-27 00:00N 69°30' W 053°48'0 0.0 1013.2 8.8
2015-Jul-26 23:00N 69°30' W 053°48'0 0.0 1013.2 9.3
2015-Jul-26 21:00N 69°30' W 053°48'0 0.0 1013.2 8.5
2015-Jul-26 20:00N 69°30' W 053°48'0 0.0 1012.8 8.8
2015-Jul-26 19:00N 69°30' W 053°48'0 0.0 1012.9 8.8
2015-Jul-26 18:00N 69°30' W 053°48'0 0.0 1012.8 9.0
2015-Jul-26 17:00N 69°30' W 053°48'2 2.1 1012.9 9.5
2015-Jul-26 16:00N 69°30' W 053°54'0 0.0 1013.5 10.0
2015-Jul-26 13:00N 69°30' W 053°54'0 0.0 1013.4 7.0
2015-Jul-26 12:00N 69°30' W 053°54'0 0.0 1013.4 6.8
2015-Jul-26 11:00N 69°30' W 053°54'0 0.0 1013.3 6.5
2015-Jul-26 09:00N 69°30' W 053°54'0 0.0 1013.1 6.8
2015-Jul-26 08:00N 69°30' W 053°54'0 0.0 1012.7 6.8
2015-Jul-26 07:00N 69°30' W 053°54'0 0.0 1012.9 6.8
2015-Jul-26 03:00N 69°30' W 053°54'0 0.0 1013.3 5.8
2015-Jul-26 02:00N 69°30' W 053°54'11 2.6 1013.5 5.8
2015-Jul-25 22:00N 69°30' W 054°24'17 8.7 1013.5 6.3
2015-Jul-25 20:00N 69°42' W 055°00'8 1.4 1013.0 6.8
2015-Jul-25 14:00N 69°42' W 054°36'0 0.0 1012.3 7.0
2015-Jul-25 13:00N 69°42' W 054°36'   1012.3 6.3
Track history (hours):
 
Tides and Currents Weather Stations Pressure Air Temp Water Temp Dewpoint Dewpoint Depression Visibility Wind Speed Wind Dir Waves Ship Positions

Callsign OS8154 (name unknown)

Last reported at 2015-Aug-04 05:00 UTC. Time now 2015-Aug-04 11:45 UTC.
Position N 66°54' W 053°36'.

Barometer 1021.9 mb
Air temperature 7.0 ° C

Date/timePositionNaut miles runAvg speedWind from/ knotsBaromVisibWave heightAir tempDewpointWater temp
2015-Aug-04 05:00N 66°54' W 053°36'0 0.0 1021.9 7.0
2015-Aug-04 02:00N 66°54' W 053°36'0 0.0 1021.9 7.8
2015-Aug-03 21:00N 66°54' W 053°36'2 0.8 1022.4 9.0
2015-Aug-03 18:00N 66°54' W 053°42'0 0.0 1022.4 8.8
2015-Aug-03 17:00N 66°54' W 053°42'0 0.0 1022.6 9.0
2015-Aug-03 16:00N 66°54' W 053°42'0 0.0 1022.9 9.5
2015-Aug-03 14:00N 66°54' W 053°42'0 0.0 1023.0 9.3
2015-Aug-03 13:00N 66°54' W 053°42'0 0.0 1023.1 9.8
2015-Aug-03 09:00N 66°54' W 053°42'0 0.0 1023.6 7.5
2015-Aug-03 06:00N 66°54' W 053°42'0 0.0 1023.5 6.5
2015-Aug-03 02:00N 66°54' W 053°42'0 0.0 1023.0 8.3
2015-Aug-03 01:00N 66°54' W 053°42'0 0.0 1022.9 9.0
2015-Aug-03 00:00N 66°54' W 053°42'0 0.0 1022.7 9.3
2015-Aug-02 23:00N 66°54' W 053°42'0 0.0 1022.6 11.3
2015-Aug-02 22:00N 66°54' W 053°42'0 0.0 1022.7 11.8
2015-Aug-02 21:00N 66°54' W 053°42'0 0.0 1022.8 11.3
2015-Aug-02 20:00N 66°54' W 053°42'0 0.0 1023.2 11.8
2015-Aug-02 19:00N 66°54' W 053°42'0 0.0 1023.3 10.0
2015-Aug-02 17:00N 66°54' W 053°42'0 0.0 1023.4 9.3
2015-Aug-02 16:00N 66°54' W 053°42'0 0.0 1023.6 9.0
2015-Aug-02 15:00N 66°54' W 053°42'0 0.0 1023.8 10.3
2015-Aug-02 14:00N 66°54' W 053°42'0 0.0 1023.9 10.0
2015-Aug-02 13:00N 66°54' W 053°42'0 0.0 1023.7 10.5
2015-Aug-02 11:00N 66°54' W 053°42'0 0.0 1023.3 9.5
2015-Aug-02 10:00N 66°54' W 053°42'0 0.0 1023.3 9.0
2015-Aug-02 06:00N 66°54' W 053°42'0 0.0 1022.6 8.8
2015-Aug-02 05:00N 66°54' W 053°42'0 0.0 1022.3 9.0
2015-Aug-02 04:00N 66°54' W 053°42'0 0.0 1022.0 8.8
2015-Aug-02 03:00N 66°54' W 053°42'0 0.0 1021.5 9.0
2015-Aug-02 01:00N 66°54' W 053°42'0 0.0 1020.4 8.8
2015-Aug-01 22:00N 66°54' W 053°42'0 0.0 1018.4 14.8
2015-Aug-01 21:00N 66°54' W 053°42'0 0.0 1018.3 13.8
2015-Aug-01 20:00N 66°54' W 053°42'2 0.5 1018.5 12.5
2015-Aug-01 15:00N 66°54' W 053°36'0 0.0 1019.6 11.3
2015-Aug-01 14:00N 66°54' W 053°36'0 0.0 1019.9 11.8
2015-Aug-01 13:00N 66°54' W 053°36'2 1.2 1020.1 12.0
2015-Aug-01 11:00N 66°54' W 053°42'0 0.0 1020.0 7.8
2015-Aug-01 09:00N 66°54' W 053°42'0 0.0 1020.0 6.0
2015-Aug-01 07:00N 66°54' W 053°42'0 0.0 1020.0 5.5
2015-Aug-01 02:00N 66°54' W 053°42'14 3.5 1020.5 5.3
2015-Jul-31 22:00N 67°06' W 054°00'24 8.0 1020.8 2.0
2015-Jul-31 19:00N 67°30' W 053°54'6 6.4 1020.8 2.3
2015-Jul-31 18:00N 67°36' W 053°48'6 6.0 1020.8 3.0
2015-Jul-31 17:00N 67°42' W 053°48'0 0.0 1021.0 5.5
2015-Jul-31 16:00N 67°42' W 053°48'25 8.3 1021.1 4.5
2015-Jul-31 13:00N 68°06' W 053°30'0 0.0 1020.8 3.3
2015-Jul-31 12:00N 68°06' W 053°30'0 0.0 1020.6 4.8
2015-Jul-31 09:00N 68°06' W 053°30'0 0.0 1020.7 4.5
2015-Jul-31 08:00N 68°06' W 053°30'0 0.0 1020.6 3.8
2015-Jul-31 07:00N 68°06' W 053°30'0 0.0 1020.6 3.3
2015-Jul-31 05:00N 68°06' W 053°30'0 0.0 1021.1 2.0
2015-Jul-31 03:00N 68°06' W 053°30'0 0.0 1021.0 2.3
2015-Jul-30 23:00N 68°06' W 053°30'19 6.2 1021.5 2.3
2015-Jul-30 20:00N 68°24' W 053°18'1212.2 1021.6 2.8
2015-Jul-30 19:00N 68°36' W 053°12'9 4.4 1021.5 3.8
2015-Jul-30 17:00N 68°42' W 052°54'0 0.0 1021.6 7.5
2015-Jul-30 14:00N 68°42' W 052°54'0 0.0 1021.5 7.3
2015-Jul-30 12:00N 68°42' W 052°54'0 0.0 1021.4 6.0
2015-Jul-30 11:00N 68°42' W 052°54'0 0.0 1021.2 5.3
2015-Jul-30 08:00N 68°42' W 052°54'0 0.0 1021.5 4.5
2015-Jul-30 07:00N 68°42' W 052°54'0 0.0 1021.3 4.3
2015-Jul-30 05:00N 68°42' W 052°54'0 0.0 1021.2 4.8
2015-Jul-30 02:00N 68°42' W 052°54'0 0.0 1021.0 3.5
2015-Jul-30 01:00N 68°42' W 052°54'6 1.2 1020.8 3.8
2015-Jul-29 20:00N 68°48' W 052°54'7 7.4 1020.2 5.8
2015-Jul-29 19:00N 68°54' W 053°06'14 3.4 1019.9 9.3
2015-Jul-29 15:00N 69°06' W 053°24'6 1.6 1019.7 8.0
2015-Jul-29 11:00N 69°12' W 053°30'0 0.0 1019.2 9.3
2015-Jul-29 09:00N 69°12' W 053°30'0 0.0 1019.1 10.3
2015-Jul-29 03:00N 69°12' W 053°30'0 0.0 1018.4 6.3
2015-Jul-28 21:00N 69°12' W 053°30'0 0.0 1018.0 8.5
2015-Jul-28 18:00N 69°12' W 053°30'0 0.0 1018.0 8.8
2015-Jul-28 16:00N 69°12' W 053°30'0 0.0 1018.2 7.0
2015-Jul-28 15:00N 69°12' W 053°30'0 0.0 1018.3 6.8
2015-Jul-28 13:00N 69°12' W 053°30'0 0.0 1018.2 7.0
2015-Jul-28 11:00N 69°12' W 053°30'0 0.0 1017.8 6.3
2015-Jul-28 09:00N 69°12' W 053°30'0 0.0 1017.4 5.8
2015-Jul-28 00:00N 69°12' W 053°30'0 0.0 1016.0 5.0
2015-Jul-27 21:00N 69°12' W 053°30'0 0.0 1015.4 6.3
2015-Jul-27 20:00N 69°12' W 053°30'6 2.1 1015.3 7.0
2015-Jul-27 17:00N 69°12' W 053°48'18 4.5 1015.3 6.3
2015-Jul-27 13:00N 69°30' W 053°48'0 0.0 1014.2 9.3
2015-Jul-27 12:00N 69°30' W 053°48'0 0.0 1014.1 10.3
2015-Jul-27 11:00N 69°30' W 053°48'0 0.0 1014.0 8.8
2015-Jul-27 00:00N 69°30' W 053°48'0 0.0 1013.2 8.8
2015-Jul-26 23:00N 69°30' W 053°48'0 0.0 1013.2 9.3
2015-Jul-26 21:00N 69°30' W 053°48'0 0.0 1013.2 8.5
2015-Jul-26 20:00N 69°30' W 053°48'0 0.0 1012.8 8.8
2015-Jul-26 19:00N 69°30' W 053°48'0 0.0 1012.9 8.8
2015-Jul-26 18:00N 69°30' W 053°48'0 0.0 1012.8 9.0
2015-Jul-26 17:00N 69°30' W 053°48'2 2.1 1012.9 9.5
2015-Jul-26 16:00N 69°30' W 053°54'0 0.0 1013.5 10.0
2015-Jul-26 13:00N 69°30' W 053°54'0 0.0 1013.4 7.0
2015-Jul-26 12:00N 69°30' W 053°54'0 0.0 1013.4 6.8
2015-Jul-26 11:00N 69°30' W 053°54'0 0.0 1013.3 6.5
2015-Jul-26 09:00N 69°30' W 053°54'0 0.0 1013.1 6.8
2015-Jul-26 08:00N 69°30' W 053°54'0 0.0 1012.7 6.8
2015-Jul-26 07:00N 69°30' W 053°54'0 0.0 1012.9 6.8
2015-Jul-26 03:00N 69°30' W 053°54'0 0.0 1013.3 5.8
2015-Jul-26 02:00N 69°30' W 053°54'11 2.6 1013.5 5.8
2015-Jul-25 22:00N 69°30' W 054°24'17 8.7 1013.5 6.3
2015-Jul-25 20:00N 69°42' W 055°00'8 1.4 1013.0 6.8
2015-Jul-25 14:00N 69°42' W 054°36'0 0.0 1012.3 7.0
2015-Jul-25 13:00N 69°42' W 054°36'   1012.3 6.3

Dump ship's entire track history